sensor_id;sensor_type;location;lat;lon;timestamp;P1;durP1;ratioP1;P2;durP2;ratioP2
22675;SDS011;12521;43.310;21.876;2024-01-25T00:00:40;39.0;;;33.0;;
22675;SDS011;12521;43.310;21.876;2024-01-25T00:05:17;32.0;;;28.0;;
22675;SDS011;12521;43.310;21.876;2024-01-25T00:09:53;32.0;;;28.0;;
22675;SDS011;12521;43.310;21.876;2024-01-25T00:14:29;25.0;;;23.0;;
22675;SDS011;12521;43.310;21.876;2024-01-25T00:19:06;25.0;;;23.0;;
22675;SDS011;12521;43.310;21.876;2024-01-25T00:23:42;26.0;;;23.0;;
22675;SDS011;12521;43.310;21.876;2024-01-25T00:28:19;26.0;;;23.0;;
22675;SDS011;12521;43.310;21.876;2024-01-25T00:32:56;28.0;;;23.0;;
22675;SDS011;12521;43.310;21.876;2024-01-25T00:37:33;28.0;;;23.0;;
22675;SDS011;12521;43.310;21.876;2024-01-25T00:42:12;28.0;;;23.0;;
22675;SDS011;12521;43.310;21.876;2024-01-25T00:46:51;29.0;;;22.0;;
22675;SDS011;12521;43.310;21.876;2024-01-25T00:51:29;29.0;;;22.0;;
22675;SDS011;12521;43.310;21.876;2024-01-25T00:56:08;30.0;;;20.0;;
22675;SDS011;12521;43.310;21.876;2024-01-25T01:00:49;30.0;;;20.0;;
22675;SDS011;12521;43.310;21.876;2024-01-25T01:05:27;22.0;;;16.0;;
22675;SDS011;12521;43.310;21.876;2024-01-25T01:10:06;22.0;;;16.0;;
22675;SDS011;12521;43.310;21.876;2024-01-25T01:14:45;13.0;;;11.0;;
22675;SDS011;12521;43.310;21.876;2024-01-25T01:19:22;13.0;;;11.0;;
22675;SDS011;12521;43.310;21.876;2024-01-25T01:23:58;20.0;;;17.0;;
22675;SDS011;12521;43.310;21.876;2024-01-25T01:28:35;20.0;;;17.0;;
22675;SDS011;12521;43.310;21.876;2024-01-25T01:33:11;28.0;;;23.0;;
22675;SDS011;12521;43.310;21.876;2024-01-25T01:37:48;28.0;;;23.0;;
22675;SDS011;12521;43.310;21.876;2024-01-25T01:42:25;28.0;;;23.0;;
22675;SDS011;12521;43.310;21.876;2024-01-25T01:47:03;34.0;;;24.0;;
22675;SDS011;12521;43.310;21.876;2024-01-25T01:51:40;34.0;;;24.0;;
22675;SDS011;12521;43.310;21.876;2024-01-25T01:56:20;39.0;;;25.0;;
22675;SDS011;12521;43.310;21.876;2024-01-25T02:00:58;39.0;;;25.0;;
22675;SDS011;12521;43.310;21.876;2024-01-25T02:05:39;30.0;;;19.0;;
22675;SDS011;12521;43.310;21.876;2024-01-25T02:10:16;30.0;;;19.0;;
22675;SDS011;12521;43.310;21.876;2024-01-25T02:14:52;20.0;;;13.0;;
22675;SDS011;12521;43.310;21.876;2024-01-25T02:19:29;20.0;;;13.0;;
22675;SDS011;12521;43.310;21.876;2024-01-25T02:24:05;18.0;;;13.0;;
22675;SDS011;12521;43.310;21.876;2024-01-25T02:28:43;18.0;;;13.0;;
22675;SDS011;12521;43.310;21.876;2024-01-25T02:33:19;15.0;;;13.0;;
22675;SDS011;12521;43.310;21.876;2024-01-25T02:37:55;15.0;;;13.0;;
22675;SDS011;12521;43.310;21.876;2024-01-25T02:42:32;15.0;;;13.0;;
22675;SDS011;12521;43.310;21.876;2024-01-25T02:47:08;16.0;;;13.0;;
22675;SDS011;12521;43.310;21.876;2024-01-25T02:51:45;16.0;;;13.0;;
22675;SDS011;12521;43.310;21.876;2024-01-25T02:56:21;16.0;;;13.0;;
22675;SDS011;12521;43.310;21.876;2024-01-25T03:00:57;16.0;;;13.0;;
22675;SDS011;12521;43.310;21.876;2024-01-25T03:05:34;17.0;;;14.0;;
22675;SDS011;12521;43.310;21.876;2024-01-25T03:10:10;17.0;;;14.0;;
22675;SDS011;12521;43.310;21.876;2024-01-25T03:14:47;18.0;;;16.0;;
22675;SDS011;12521;43.310;21.876;2024-01-25T03:19:25;18.0;;;16.0;;
22675;SDS011;12521;43.310;21.876;2024-01-25T03:24:04;20.0;;;16.0;;
22675;SDS011;12521;43.310;21.876;2024-01-25T03:28:41;20.0;;;16.0;;
22675;SDS011;12521;43.310;21.876;2024-01-25T03:33:17;22.0;;;16.0;;
22675;SDS011;12521;43.310;21.876;2024-01-25T03:37:53;22.0;;;16.0;;
22675;SDS011;12521;43.310;21.876;2024-01-25T03:42:30;22.0;;;16.0;;
22675;SDS011;12521;43.310;21.876;2024-01-25T03:47:06;20.0;;;16.0;;
22675;SDS011;12521;43.310;21.876;2024-01-25T03:51:43;20.0;;;16.0;;
22675;SDS011;12521;43.310;21.876;2024-01-25T03:56:19;18.0;;;17.0;;
22675;SDS011;12521;43.310;21.876;2024-01-25T04:00:56;18.0;;;17.0;;
22675;SDS011;12521;43.310;21.876;2024-01-25T04:05:32;20.0;;;17.0;;
22675;SDS011;12521;43.310;21.876;2024-01-25T04:10:09;20.0;;;17.0;;
22675;SDS011;12521;43.310;21.876;2024-01-25T04:14:45;21.0;;;17.0;;
22675;SDS011;12521;43.310;21.876;2024-01-25T04:19:22;21.0;;;17.0;;
22675;SDS011;12521;43.310;21.876;2024-01-25T04:23:58;20.0;;;16.0;;
22675;SDS011;12521;43.310;21.876;2024-01-25T04:28:35;20.0;;;16.0;;
22675;SDS011;12521;43.310;21.876;2024-01-25T04:33:11;18.0;;;15.0;;
22675;SDS011;12521;43.310;21.876;2024-01-25T04:37:47;18.0;;;15.0;;
22675;SDS011;12521;43.310;21.876;2024-01-25T04:42:23;18.0;;;15.0;;
22675;SDS011;12521;43.310;21.876;2024-01-25T04:47:00;20.0;;;16.0;;
22675;SDS011;12521;43.310;21.876;2024-01-25T04:51:36;20.0;;;16.0;;
22675;SDS011;12521;43.310;21.876;2024-01-25T04:56:12;21.0;;;17.0;;
22675;SDS011;12521;43.310;21.876;2024-01-25T05:00:48;21.0;;;17.0;;
22675;SDS011;12521;43.310;21.876;2024-01-25T05:05:25;20.0;;;18.0;;
22675;SDS011;12521;43.310;21.876;2024-01-25T05:10:01;20.0;;;18.0;;
22675;SDS011;12521;43.310;21.876;2024-01-25T05:14:37;20.0;;;19.0;;
22675;SDS011;12521;43.310;21.876;2024-01-25T05:19:13;20.0;;;19.0;;
22675;SDS011;12521;43.310;21.876;2024-01-25T05:23:55;26.0;;;21.0;;
22675;SDS011;12521;43.310;21.876;2024-01-25T05:28:32;26.0;;;21.0;;
22675;SDS011;12521;43.310;21.876;2024-01-25T05:33:08;31.0;;;23.0;;
22675;SDS011;12521;43.310;21.876;2024-01-25T05:37:45;31.0;;;23.0;;
22675;SDS011;12521;43.310;21.876;2024-01-25T05:42:21;31.0;;;23.0;;
22675;SDS011;12521;43.310;21.876;2024-01-25T05:46:58;30.0;;;24.0;;
22675;SDS011;12521;43.310;21.876;2024-01-25T05:51:34;30.0;;;24.0;;
22675;SDS011;12521;43.310;21.876;2024-01-25T05:56:10;29.0;;;25.0;;
22675;SDS011;12521;43.310;21.876;2024-01-25T06:00:46;29.0;;;25.0;;
22675;SDS011;12521;43.310;21.876;2024-01-25T06:05:22;24.0;;;22.0;;
22675;SDS011;12521;43.310;21.876;2024-01-25T06:09:58;24.0;;;22.0;;
22675;SDS011;12521;43.310;21.876;2024-01-25T06:14:34;20.0;;;18.0;;
22675;SDS011;12521;43.310;21.876;2024-01-25T06:19:10;20.0;;;18.0;;
22675;SDS011;12521;43.310;21.876;2024-01-25T06:23:47;20.0;;;18.0;;
22675;SDS011;12521;43.310;21.876;2024-01-25T06:28:23;20.0;;;18.0;;
22675;SDS011;12521;43.310;21.876;2024-01-25T06:32:59;21.0;;;18.0;;
22675;SDS011;12521;43.310;21.876;2024-01-25T06:37:35;21.0;;;18.0;;
22675;SDS011;12521;43.310;21.876;2024-01-25T06:42:12;21.0;;;18.0;;
22675;SDS011;12521;43.310;21.876;2024-01-25T06:46:48;21.0;;;18.0;;
22675;SDS011;12521;43.310;21.876;2024-01-25T06:51:24;21.0;;;18.0;;
22675;SDS011;12521;43.310;21.876;2024-01-25T06:56:01;21.0;;;18.0;;
22675;SDS011;12521;43.310;21.876;2024-01-25T07:00:40;21.0;;;18.0;;
22675;SDS011;12521;43.310;21.876;2024-01-25T07:05:17;26.0;;;20.0;;
22675;SDS011;12521;43.310;21.876;2024-01-25T07:09:54;26.0;;;20.0;;
22675;SDS011;12521;43.310;21.876;2024-01-25T07:14:31;30.0;;;23.0;;
22675;SDS011;12521;43.310;21.876;2024-01-25T07:19:07;30.0;;;23.0;;
22675;SDS011;12521;43.310;21.876;2024-01-25T07:23:43;36.0;;;28.0;;
22675;SDS011;12521;43.310;21.876;2024-01-25T07:28:19;36.0;;;28.0;;
22675;SDS011;12521;43.310;21.876;2024-01-25T07:32:56;41.0;;;32.0;;
22675;SDS011;12521;43.310;21.876;2024-01-25T07:37:32;41.0;;;32.0;;
22675;SDS011;12521;43.310;21.876;2024-01-25T07:42:08;41.0;;;32.0;;
22675;SDS011;12521;43.310;21.876;2024-01-25T07:46:44;48.0;;;38.0;;
22675;SDS011;12521;43.310;21.876;2024-01-25T07:51:20;48.0;;;38.0;;
22675;SDS011;12521;43.310;21.876;2024-01-25T07:55:57;54.0;;;45.0;;
22675;SDS011;12521;43.310;21.876;2024-01-25T08:00:33;54.0;;;45.0;;
22675;SDS011;12521;43.310;21.876;2024-01-25T08:05:09;54.0;;;43.0;;
22675;SDS011;12521;43.310;21.876;2024-01-25T08:09:46;54.0;;;43.0;;
22675;SDS011;12521;43.310;21.876;2024-01-25T08:14:22;53.0;;;41.0;;
22675;SDS011;12521;43.310;21.876;2024-01-25T08:18:58;53.0;;;41.0;;
22675;SDS011;12521;43.310;21.876;2024-01-25T08:23:35;58.0;;;48.0;;
22675;SDS011;12521;43.310;21.876;2024-01-25T08:28:11;58.0;;;48.0;;
22675;SDS011;12521;43.310;21.876;2024-01-25T08:32:47;58.0;;;48.0;;
22675;SDS011;12521;43.310;21.876;2024-01-25T08:37:24;63.0;;;55.0;;
22675;SDS011;12521;43.310;21.876;2024-01-25T08:42:00;63.0;;;55.0;;
22675;SDS011;12521;43.310;21.876;2024-01-25T08:46:36;58.0;;;49.0;;
22675;SDS011;12521;43.310;21.876;2024-01-25T08:51:12;58.0;;;49.0;;
22675;SDS011;12521;43.310;21.876;2024-01-25T08:55:49;52.0;;;43.0;;
22675;SDS011;12521;43.310;21.876;2024-01-25T09:00:25;52.0;;;43.0;;
22675;SDS011;12521;43.310;21.876;2024-01-25T09:05:01;50.0;;;42.0;;
22675;SDS011;12521;43.310;21.876;2024-01-25T09:09:40;50.0;;;42.0;;
22675;SDS011;12521;43.310;21.876;2024-01-25T09:14:17;47.0;;;40.0;;
22675;SDS011;12521;43.310;21.876;2024-01-25T09:18:53;47.0;;;40.0;;
22675;SDS011;12521;43.310;21.876;2024-01-25T09:23:29;45.0;;;34.0;;
22675;SDS011;12521;43.310;21.876;2024-01-25T09:28:06;45.0;;;34.0;;
22675;SDS011;12521;43.310;21.876;2024-01-25T09:32:42;45.0;;;34.0;;
22675;SDS011;12521;43.310;21.876;2024-01-25T09:37:19;43.0;;;29.0;;
22675;SDS011;12521;43.310;21.876;2024-01-25T09:41:55;43.0;;;29.0;;
22675;SDS011;12521;43.310;21.876;2024-01-25T09:46:32;36.0;;;27.0;;
22675;SDS011;12521;43.310;21.876;2024-01-25T09:51:10;36.0;;;27.0;;
22675;SDS011;12521;43.310;21.876;2024-01-25T09:55:53;29.0;;;25.0;;
22675;SDS011;12521;43.310;21.876;2024-01-25T10:00:47;29.0;;;25.0;;
22675;SDS011;12521;43.310;21.876;2024-01-25T10:05:23;29.0;;;25.0;;
22675;SDS011;12521;43.310;21.876;2024-01-25T10:10:00;29.0;;;25.0;;
